createdAt,value
2019-03-24T00:02:08.432Z,38.90
2019-03-24T00:04:51.321Z,35.50
2019-03-24T00:07:46.905Z,40.00
2019-03-24T00:10:36.567Z,34.50
2019-03-24T00:13:13.348Z,38.05
2019-03-24T00:16:03.180Z,34.30
2019-03-24T00:18:46.218Z,36.35
2019-03-24T00:21:34.900Z,35.08
2019-03-24T00:24:10.972Z,37.98
2019-03-24T00:27:00.667Z,32.63
2019-03-24T00:29:37.854Z,35.83
2019-03-24T00:32:34.426Z,40.48
2019-03-24T00:35:30.610Z,34.88
2019-03-24T00:38:25.917Z,34.45
2019-03-24T00:41:15.378Z,29.05
2019-03-24T00:43:58.984Z,33.92
2019-03-24T00:46:54.259Z,34.25
2019-03-24T00:49:43.806Z,33.33
2019-03-24T00:52:20.715Z,27.42
2019-03-24T00:55:10.932Z,30.27
2019-03-24T00:57:47.314Z,30.27
2019-03-24T01:00:48.705Z,28.55
2019-03-24T01:03:26.388Z,32.03
2019-03-24T01:06:14.999Z,31.77
2019-03-24T01:08:51.701Z,30.17
2019-03-24T01:11:40.552Z,29.42
2019-03-24T01:14:17.301Z,32.88
2019-03-24T01:17:06.170Z,28.05
2019-03-24T01:19:42.094Z,32.80
2019-03-24T01:22:31.020Z,31.45
2019-03-24T01:25:13.666Z,28.77
2019-03-24T01:28:02.433Z,32.48
2019-03-24T01:30:38.996Z,29.52
2019-03-24T01:33:27.511Z,24.45
2019-03-24T01:36:04.263Z,28.75
2019-03-24T01:38:54.129Z,26.02
2019-03-24T01:41:29.773Z,28.73
2019-03-24T01:44:19.107Z,27.60
2019-03-24T01:46:55.490Z,22.60
2019-03-24T01:49:44.604Z,26.35
2019-03-24T01:52:20.509Z,29.48
2019-03-24T01:55:10.305Z,25.30
2019-03-24T01:57:53.334Z,24.57
2019-03-24T02:00:48.966Z,22.00
2019-03-24T02:03:37.827Z,24.00
2019-03-24T02:06:13.779Z,25.57
2019-03-24T02:09:03.757Z,24.20
2019-03-24T02:11:40.118Z,27.00
2019-03-24T02:14:29.936Z,25.35
2019-03-24T02:17:12.482Z,26.15
2019-03-24T02:20:00.828Z,24.00
2019-03-24T02:25:38.985Z,23.30
2019-03-24T02:28:34.879Z,26.12
2019-03-24T02:31:31.551Z,20.72
2019-03-24T02:34:27.534Z,21.75
2019-03-24T02:37:16.158Z,25.77
2019-03-24T02:39:52.050Z,24.37
2019-03-24T02:42:41.018Z,21.50
2019-03-24T02:45:24.404Z,25.45
2019-03-24T02:48:06.964Z,22.77
2019-03-24T02:50:55.640Z,22.85
2019-03-24T02:53:34.231Z,24.87
2019-03-24T02:56:23.832Z,26.07
2019-03-24T02:59:00.180Z,24.25
2019-03-24T03:01:49.930Z,21.97
2019-03-24T03:04:32.215Z,22.02
2019-03-24T03:07:14.992Z,23.83
2019-03-24T03:09:57.219Z,21.50
2019-03-24T03:12:40.601Z,21.02
2019-03-24T03:15:23.574Z,23.00
2019-03-24T03:18:13.599Z,24.57
2019-03-24T03:20:50.140Z,22.02
2019-03-24T03:23:39.017Z,24.52
2019-03-24T03:26:15.248Z,20.92
2019-03-24T03:29:05.311Z,17.52
2019-03-24T03:31:48.245Z,20.32
2019-03-24T03:34:44.024Z,16.60
2019-03-24T03:37:39.054Z,20.52
2019-03-24T03:40:28.288Z,20.48
2019-03-24T03:43:04.450Z,18.23
2019-03-24T03:45:54.366Z,21.42
2019-03-24T03:48:30.319Z,20.45
2019-03-24T03:51:19.626Z,18.45
2019-03-24T03:54:02.595Z,17.80
2019-03-24T03:56:59.289Z,19.85
2019-03-24T03:59:55.343Z,17.70
2019-03-24T04:02:45.577Z,18.12
2019-03-24T04:05:36.388Z,18.55
2019-03-24T04:08:32.545Z,20.10
2019-03-24T04:11:22.370Z,18.50
2019-03-24T04:14:06.222Z,18.55
2019-03-24T04:16:49.473Z,20.15
2019-03-24T04:19:39.724Z,16.27
2019-03-24T04:22:22.940Z,20.32
2019-03-24T04:25:12.169Z,17.70
2019-03-24T04:27:54.782Z,19.02
2019-03-24T04:30:45.293Z,15.83
2019-03-24T04:33:21.414Z,16.80
2019-03-24T04:36:10.379Z,16.23
2019-03-24T04:38:52.861Z,18.82
2019-03-24T04:41:35.843Z,17.17
2019-03-24T04:44:24.923Z,16.82
2019-03-24T04:47:16.382Z,19.55
2019-03-24T04:49:58.419Z,19.75
2019-03-24T04:52:34.273Z,17.48
2019-03-24T04:55:23.645Z,19.02
2019-03-24T04:58:00.027Z,18.77
2019-03-24T05:00:50.026Z,16.20
2019-03-24T05:03:25.927Z,16.70
2019-03-24T05:06:17.676Z,19.45
2019-03-24T05:09:02.284Z,17.55
2019-03-24T05:11:58.559Z,18.70
2019-03-24T05:14:54.897Z,19.25
2019-03-24T05:17:50.679Z,16.67
2019-03-24T05:20:46.352Z,16.60
2019-03-24T05:23:35.566Z,15.13
2019-03-24T05:26:12.309Z,19.05
2019-03-24T05:29:01.444Z,15.50
2019-03-24T05:31:37.874Z,17.77
2019-03-24T05:34:28.412Z,17.73
2019-03-24T05:37:04.206Z,20.10
2019-03-24T05:39:53.505Z,18.25
2019-03-24T05:42:36.137Z,15.53
2019-03-24T05:45:31.749Z,17.17
2019-03-24T05:48:27.286Z,14.65
2019-03-24T05:51:23.514Z,18.00
2019-03-24T05:54:12.500Z,16.75
2019-03-24T05:56:48.929Z,16.07
2019-03-24T05:59:38.298Z,15.85
2019-03-24T06:02:14.762Z,17.85
2019-03-24T06:05:04.880Z,17.62
2019-03-24T06:07:41.337Z,17.35
2019-03-24T06:10:30.548Z,17.12
2019-03-24T06:13:06.698Z,16.23
2019-03-24T06:15:55.968Z,16.12
2019-03-24T06:18:32.075Z,15.85
2019-03-24T06:21:21.774Z,18.15
2019-03-24T06:23:58.563Z,20.05
2019-03-24T06:26:48.071Z,17.17
2019-03-24T06:29:30.756Z,19.40
2019-03-24T06:32:25.936Z,16.42
2019-03-24T06:35:15.180Z,16.85
2019-03-24T06:37:59.265Z,18.92
2019-03-24T06:40:47.737Z,21.07
2019-03-24T06:43:24.088Z,20.68
2019-03-24T06:46:14.987Z,20.00
2019-03-24T06:48:57.872Z,18.35
2019-03-24T06:51:53.185Z,21.25
2019-03-24T06:54:42.759Z,19.57
2019-03-24T06:57:26.068Z,20.75
2019-03-24T07:00:22.866Z,25.52
2019-03-24T07:03:12.179Z,22.22
2019-03-24T07:05:48.219Z,22.35
2019-03-24T07:08:37.664Z,25.43
2019-03-24T07:11:21.061Z,21.48
2019-03-24T07:14:16.863Z,27.05
2019-03-24T07:17:05.881Z,21.33
2019-03-24T07:19:49.559Z,24.63
2019-03-24T07:22:39.011Z,23.55
2019-03-24T07:25:22.561Z,22.02
2019-03-24T07:28:18.952Z,20.37
2019-03-24T07:31:07.459Z,20.05
2019-03-24T07:33:44.337Z,17.02
2019-03-24T07:36:34.560Z,18.80
2019-03-24T07:39:29.992Z,21.27
2019-03-24T07:42:18.640Z,17.90
2019-03-24T07:45:02.019Z,18.40
2019-03-24T07:47:44.881Z,20.72
2019-03-24T07:53:15.202Z,17.60
2019-03-24T07:56:06.455Z,18.17
2019-03-24T07:58:42.331Z,19.52
2019-03-24T08:04:06.978Z,21.48
2019-03-24T08:06:57.324Z,21.77
2019-03-24T08:09:40.139Z,19.00
2019-03-24T08:12:29.349Z,22.67
2019-03-24T08:15:06.075Z,26.60
2019-03-24T08:17:55.106Z,28.23
2019-03-24T08:20:45.081Z,24.23
2019-03-24T08:23:28.135Z,24.57
2019-03-24T08:26:25.411Z,171.10
2019-03-24T08:29:20.453Z,164.65
2019-03-24T08:32:16.040Z,27.45
2019-03-24T08:35:06.318Z,22.90
2019-03-24T08:37:43.955Z,24.57
2019-03-24T08:40:32.929Z,22.87
2019-03-24T08:43:11.751Z,27.15
2019-03-24T08:46:01.533Z,29.10
2019-03-24T08:48:41.121Z,28.35
2019-03-24T08:51:28.365Z,29.50
2019-03-24T08:54:04.493Z,27.70
2019-03-24T08:56:53.891Z,24.67
2019-03-24T08:59:30.646Z,31.17
2019-03-24T09:02:19.713Z,37.73
2019-03-24T09:04:56.103Z,30.15
2019-03-24T09:07:45.254Z,27.35
2019-03-24T09:10:21.807Z,26.73
2019-03-24T09:13:11.507Z,27.98
2019-03-24T09:15:54.870Z,34.92
2019-03-24T09:18:52.743Z,28.40
2019-03-24T09:21:42.571Z,36.45
2019-03-24T09:24:26.238Z,31.93
2019-03-24T09:27:15.516Z,51.25
2019-03-24T09:29:52.461Z,35.52
2019-03-24T09:32:42.045Z,105.55
2019-03-24T09:35:18.062Z,33.40
2019-03-24T09:38:06.796Z,32.23
2019-03-24T09:40:42.946Z,31.40
2019-03-24T09:43:31.728Z,35.55
2019-03-24T09:49:03.147Z,31.25
2019-03-24T09:51:40.594Z,29.80
2019-03-24T09:54:30.795Z,36.25
2019-03-24T09:57:13.393Z,34.67
2019-03-24T10:00:09.915Z,37.73
2019-03-24T10:03:05.658Z,32.30
2019-03-24T10:06:02.180Z,35.55
2019-03-24T10:08:51.395Z,35.40
2019-03-24T10:11:34.769Z,40.55
2019-03-24T10:14:24.455Z,38.48
2019-03-24T10:17:00.787Z,37.90
2019-03-24T10:19:50.717Z,36.05
2019-03-24T10:22:26.810Z,33.65
2019-03-24T10:25:15.621Z,44.77
2019-03-24T10:27:58.766Z,36.83
2019-03-24T10:30:41.018Z,37.88
2019-03-24T10:33:30.857Z,38.00
2019-03-24T10:36:13.407Z,41.63
2019-03-24T10:39:02.427Z,39.20
2019-03-24T10:41:58.355Z,36.00
2019-03-24T10:44:47.668Z,37.23
2019-03-24T10:47:24.035Z,38.58
2019-03-24T10:50:15.075Z,37.33
2019-03-24T10:52:59.013Z,40.73
2019-03-24T10:55:55.653Z,33.53
2019-03-24T10:58:52.159Z,38.65
2019-03-24T11:01:48.677Z,36.58
2019-03-24T11:04:44.909Z,34.98
2019-03-24T11:07:41.231Z,28.95
2019-03-24T11:10:30.013Z,22.73
2019-03-24T11:13:06.186Z,17.60
2019-03-24T11:15:56.796Z,23.27
2019-03-24T11:18:32.529Z,18.67
2019-03-24T11:21:22.394Z,18.00
2019-03-24T11:23:58.962Z,16.52
2019-03-24T11:26:48.820Z,11.65
2019-03-24T11:29:25.501Z,11.55
2019-03-24T11:32:14.154Z,12.40
2019-03-24T11:34:56.416Z,23.75
2019-03-24T11:37:47.216Z,14.95
2019-03-24T11:40:23.113Z,13.53
2019-03-24T11:43:12.179Z,18.07
2019-03-24T11:45:54.487Z,13.98
2019-03-24T11:48:50.870Z,13.75
2019-03-24T11:51:47.725Z,43.00
2019-03-24T11:54:43.287Z,11.28
2019-03-24T11:57:26.180Z,12.05
2019-03-24T12:00:18.227Z,13.48
2019-03-24T12:02:54.399Z,13.83
2019-03-24T12:05:43.427Z,12.47
2019-03-24T12:08:25.524Z,19.48
2019-03-24T12:11:07.759Z,17.15
2019-03-24T12:13:50.506Z,16.87
2019-03-24T12:16:40.974Z,18.73
2019-03-24T12:19:17.202Z,16.35
2019-03-24T12:22:06.174Z,18.55
2019-03-24T12:24:49.154Z,19.67
2019-03-24T12:27:32.894Z,16.73
2019-03-24T12:30:22.215Z,19.50
2019-03-24T12:32:58.664Z,20.25
2019-03-24T12:35:48.283Z,23.12
2019-03-24T12:38:24.885Z,23.57
2019-03-24T12:41:20.653Z,25.05
2019-03-24T12:44:16.140Z,19.17
2019-03-24T12:47:11.991Z,16.50
2019-03-24T12:50:08.763Z,19.45
2019-03-24T12:52:39.253Z,12.65
2019-03-24T12:55:28.766Z,16.42
2019-03-24T12:58:04.636Z,19.05
2019-03-24T13:00:48.022Z,17.87
2019-03-24T13:03:30.161Z,20.60
2019-03-24T13:06:05.786Z,20.25
2019-03-24T13:08:54.646Z,30.88
2019-03-24T13:11:30.801Z,28.73
2019-03-24T13:14:19.808Z,26.55
2019-03-24T13:16:55.973Z,27.20
2019-03-24T13:19:44.766Z,31.40
2019-03-24T13:22:20.649Z,36.30
2019-03-24T13:25:10.448Z,47.65
2019-03-24T13:27:46.841Z,39.50
2019-03-24T13:30:37.700Z,42.38
2019-03-24T13:33:20.686Z,44.98
2019-03-24T13:36:35.640Z,41.63
2019-03-24T13:39:26.402Z,36.80
2019-03-24T13:42:02.703Z,37.93
2019-03-24T13:44:52.219Z,32.78
2019-03-24T13:47:34.707Z,33.23
2019-03-24T13:50:31.719Z,36.30
2019-03-24T13:53:27.116Z,38.35
2019-03-24T13:56:22.415Z,36.45
2019-03-24T13:59:18.670Z,40.03
2019-03-24T14:02:14.258Z,37.30
2019-03-24T14:05:10.520Z,33.35
2019-03-24T14:08:00.103Z,32.75
2019-03-24T14:10:36.073Z,34.13
2019-03-24T14:13:24.916Z,36.80
2019-03-24T14:16:00.491Z,35.65
2019-03-24T14:18:51.503Z,32.85
2019-03-24T14:21:27.875Z,32.38
2019-03-24T14:24:17.788Z,30.90
2019-03-24T14:26:53.643Z,29.23
2019-03-24T14:29:42.601Z,30.77
2019-03-24T14:32:18.626Z,25.88
2019-03-24T14:35:07.925Z,27.67
2019-03-24T14:37:45.297Z,29.48
2019-03-24T14:40:34.494Z,30.75
2019-03-24T14:43:18.644Z,25.50
2019-03-24T14:46:07.725Z,25.80
2019-03-24T14:51:32.841Z,21.57
2019-03-24T14:54:16.183Z,19.67
2019-03-24T14:57:04.754Z,20.30
2019-03-24T14:59:40.857Z,19.73
2019-03-24T15:02:30.335Z,22.15
2019-03-24T15:05:12.824Z,18.00
2019-03-24T15:08:09.527Z,20.45
2019-03-24T15:11:06.079Z,20.45
2019-03-24T15:14:01.823Z,17.07
2019-03-24T15:16:51.432Z,25.02
2019-03-24T15:19:33.910Z,16.95
2019-03-24T15:22:28.971Z,20.55
2019-03-24T15:25:18.167Z,18.00
2019-03-24T15:27:54.479Z,16.15
2019-03-24T15:30:43.045Z,17.27
2019-03-24T15:36:08.830Z,15.90
2019-03-24T15:38:44.749Z,19.15
2019-03-24T15:41:33.894Z,20.00
2019-03-24T15:44:10.420Z,16.50
2019-03-24T15:46:59.179Z,19.48
2019-03-24T15:49:50.515Z,27.52
2019-03-24T15:52:39.400Z,17.75
2019-03-24T15:55:22.235Z,15.15
2019-03-24T15:58:19.361Z,13.43
2019-03-24T16:01:15.609Z,18.57
2019-03-24T16:04:05.094Z,18.35
2019-03-24T16:06:48.341Z,18.85
2019-03-24T16:09:43.583Z,21.87
2019-03-24T16:12:38.953Z,20.68
2019-03-24T16:15:28.226Z,20.12
2019-03-24T16:18:03.882Z,18.98
2019-03-24T16:20:54.163Z,21.65
2019-03-24T16:23:30.182Z,17.27
2019-03-24T16:26:19.923Z,20.40
2019-03-24T16:28:55.808Z,21.95
2019-03-24T16:31:46.069Z,25.20
2019-03-24T16:34:22.085Z,20.52
2019-03-24T16:37:11.728Z,23.75
2019-03-24T16:39:48.073Z,23.02
2019-03-24T16:42:38.617Z,25.75
2019-03-24T16:45:14.300Z,22.10
2019-03-24T16:48:03.376Z,23.50
2019-03-24T16:50:39.926Z,20.95
2019-03-24T16:53:29.016Z,23.57
2019-03-24T16:56:05.155Z,24.20
2019-03-24T16:58:54.547Z,24.60
2019-03-24T17:01:31.000Z,19.70
2019-03-24T17:04:19.753Z,23.65
2019-03-24T17:06:56.793Z,24.25
2019-03-24T17:09:46.494Z,25.90
2019-03-24T17:12:34.175Z,22.00
2019-03-24T17:15:32.130Z,22.10
2019-03-24T17:18:12.484Z,22.67
2019-03-24T17:21:06.868Z,20.82
2019-03-24T17:23:55.804Z,22.20
2019-03-24T17:26:58.094Z,22.20
2019-03-24T17:30:09.560Z,23.47
2019-03-24T17:33:10.018Z,23.83
2019-03-24T17:35:51.166Z,25.02
2019-03-24T17:38:45.957Z,23.98
2019-03-24T17:41:44.214Z,25.90
2019-03-24T17:44:50.157Z,28.25
2019-03-24T17:47:51.454Z,27.20
2019-03-24T17:50:45.703Z,25.55
2019-03-24T17:53:32.792Z,25.97
2019-03-24T17:56:35.876Z,30.90
2019-03-24T17:59:32.704Z,29.30
2019-03-24T18:02:28.968Z,29.82
2019-03-24T18:05:24.977Z,28.47
2019-03-24T18:08:20.452Z,38.65
2019-03-24T18:11:16.731Z,30.32
2019-03-24T18:14:06.079Z,33.65
2019-03-24T18:16:42.377Z,31.23
2019-03-24T18:19:32.153Z,32.78
2019-03-24T18:22:15.796Z,35.25
2019-03-24T18:25:00.168Z,35.08
2019-03-24T18:27:50.475Z,39.55
2019-03-24T18:30:26.800Z,37.05
2019-03-24T18:33:17.239Z,35.52
2019-03-24T18:36:00.257Z,31.23
2019-03-24T18:38:45.539Z,38.78
2019-03-24T18:41:27.973Z,184.78
2019-03-24T18:44:10.751Z,41.63
2019-03-24T18:46:53.457Z,36.48
2019-03-24T18:49:37.251Z,41.68
2019-03-24T18:52:22.770Z,39.83
2019-03-24T18:55:04.866Z,46.55
2019-03-24T18:57:47.893Z,41.85
2019-03-24T19:00:29.924Z,43.87
2019-03-24T19:03:12.152Z,42.53
2019-03-24T19:06:01.211Z,46.23
2019-03-24T19:08:43.479Z,52.23
2019-03-24T19:11:26.541Z,50.75
2019-03-24T19:14:08.954Z,49.90
2019-03-24T19:16:59.002Z,47.23
2019-03-24T19:19:34.993Z,42.65
2019-03-24T19:22:33.282Z,43.78
2019-03-24T19:25:02.334Z,44.73
2019-03-24T19:27:52.657Z,44.98
2019-03-24T19:30:33.773Z,44.77
2019-03-24T19:33:23.311Z,50.58
2019-03-24T19:39:06.837Z,41.70
2019-03-24T19:41:56.329Z,51.98
2019-03-24T19:44:32.730Z,52.30
2019-03-24T19:47:21.838Z,46.25
2019-03-24T19:49:57.615Z,57.60
2019-03-24T19:52:47.400Z,60.35
2019-03-24T19:55:30.119Z,54.90
2019-03-24T19:58:25.279Z,58.38
2019-03-24T20:01:21.126Z,49.83
2019-03-24T20:04:16.453Z,51.68
2019-03-24T20:07:13.833Z,51.35
2019-03-24T20:10:03.256Z,51.23
2019-03-24T20:12:47.793Z,51.80
2019-03-24T20:15:37.316Z,54.25
2019-03-24T20:18:20.653Z,52.33
2019-03-24T20:21:16.409Z,56.48
2019-03-24T20:24:13.967Z,56.55
2019-03-24T20:27:02.369Z,56.37
2019-03-24T20:29:44.696Z,54.03
2019-03-24T20:32:40.898Z,52.83
2019-03-24T20:35:30.699Z,54.40
2019-03-24T20:38:06.874Z,61.45
2019-03-24T20:40:56.007Z,56.90
2019-03-24T20:43:39.302Z,55.52
2019-03-24T20:46:35.575Z,56.45
2019-03-24T20:49:31.068Z,58.78
2019-03-24T20:52:20.456Z,58.55
2019-03-24T20:54:56.493Z,57.23
2019-03-24T21:00:27.537Z,51.42
2019-03-24T21:03:16.747Z,54.70
2019-03-24T21:05:53.898Z,56.98
2019-03-24T21:08:43.562Z,57.43
2019-03-24T21:11:20.278Z,56.37
2019-03-24T21:14:09.685Z,57.17
2019-03-24T21:16:45.540Z,59.77
2019-03-24T21:19:35.281Z,57.15
2019-03-24T21:22:17.878Z,58.10
2019-03-24T21:25:14.803Z,55.43
2019-03-24T21:28:11.189Z,57.03
2019-03-24T21:31:01.674Z,55.70
2019-03-24T21:33:46.787Z,52.43
2019-03-24T21:36:43.583Z,57.07
2019-03-24T21:39:40.253Z,61.53
2019-03-24T21:42:31.118Z,59.63
2019-03-24T21:45:09.663Z,57.93
2019-03-24T21:48:05.438Z,53.20
2019-03-24T21:51:01.540Z,58.13
2019-03-24T21:53:57.371Z,56.10
2019-03-24T21:56:47.668Z,55.95
2019-03-24T21:59:30.558Z,59.67
2019-03-24T22:02:21.260Z,56.05
2019-03-24T22:05:05.233Z,58.35
2019-03-24T22:08:01.278Z,54.80
2019-03-24T22:10:51.250Z,59.70
2019-03-24T22:13:33.835Z,58.63
2019-03-24T22:16:23.976Z,57.75
2019-03-24T22:19:00.565Z,53.78
2019-03-24T22:21:50.297Z,59.25
2019-03-24T22:24:26.754Z,63.08
2019-03-24T22:27:16.765Z,59.58
2019-03-24T22:29:53.888Z,66.20
2019-03-24T22:32:43.969Z,60.95
2019-03-24T22:35:19.892Z,59.15
2019-03-24T22:38:09.095Z,61.33
2019-03-24T22:40:45.418Z,65.22
2019-03-24T22:43:34.707Z,58.78
2019-03-24T22:46:11.156Z,64.37
2019-03-24T22:49:07.347Z,59.05
2019-03-24T22:52:07.427Z,63.63
2019-03-24T22:54:55.338Z,64.15
2019-03-24T22:57:37.970Z,62.40
2019-03-24T23:00:28.392Z,57.60
2019-03-24T23:03:06.662Z,62.35
2019-03-24T23:05:58.011Z,59.40
2019-03-24T23:08:47.625Z,61.20
2019-03-24T23:11:31.127Z,63.28
2019-03-24T23:14:20.264Z,58.15
2019-03-24T23:16:56.497Z,67.53
2019-03-24T23:19:45.558Z,62.03
2019-03-24T23:22:27.249Z,63.17
2019-03-24T23:25:16.324Z,59.13
2019-03-24T23:28:00.075Z,62.03
2019-03-24T23:30:41.896Z,62.23
2019-03-24T23:33:24.924Z,59.75
2019-03-24T23:36:08.927Z,63.80
2019-03-24T23:38:58.295Z,58.70
2019-03-24T23:41:34.255Z,59.88
2019-03-24T23:44:24.041Z,61.30
2019-03-24T23:47:07.411Z,59.38
2019-03-24T23:50:03.340Z,63.00
2019-03-24T23:52:51.614Z,59.53
2019-03-24T23:55:27.822Z,57.08
2019-03-24T23:58:18.527Z,60.17
